createdAt,value
2023-08-08T00:01:04.506Z,100583.50
2023-08-08T00:03:32.536Z,100585.47
2023-08-08T00:06:00.173Z,100536.03
2023-08-08T00:08:27.683Z,100574.53
2023-08-08T00:10:55.610Z,100540.81
2023-08-08T00:13:23.611Z,100539.97
2023-08-08T00:15:51.136Z,100585.22
2023-08-08T00:18:18.951Z,100540.50
2023-08-08T00:20:46.539Z,100585.75
2023-08-08T00:23:14.050Z,100589.53
2023-08-08T00:25:42.118Z,100589.53
2023-08-08T00:28:09.630Z,100589.84
2023-08-08T00:30:37.170Z,100596.63
2023-08-08T00:33:05.523Z,100587.03
2023-08-08T00:35:33.734Z,100591.78
2023-08-08T00:38:01.277Z,100592.56
2023-08-08T00:40:28.986Z,100589.09
2023-08-08T00:42:56.435Z,100589.22
2023-08-08T00:45:23.921Z,100601.28
2023-08-08T00:47:51.940Z,100601.72
2023-08-08T00:50:19.771Z,100599.91
2023-08-08T00:52:48.000Z,100556.53
2023-08-08T00:55:17.687Z,100603.16
2023-08-08T00:57:46.192Z,100608.94
2023-08-08T01:00:13.927Z,100599.63
2023-08-08T01:02:41.781Z,100565.13
2023-08-08T01:05:09.981Z,100604.19
2023-08-08T01:07:48.623Z,100609.06
2023-08-08T01:10:21.596Z,100614.50
2023-08-08T01:12:56.565Z,100620.44
2023-08-08T01:15:25.417Z,100621.56
2023-08-08T01:17:54.086Z,100627.56
2023-08-08T01:20:24.251Z,100575.63
2023-08-08T01:22:58.915Z,100625.31
2023-08-08T01:25:27.955Z,100625.41
2023-08-08T01:27:56.850Z,100619.34
2023-08-08T01:30:24.548Z,100617.66
2023-08-08T01:32:52.208Z,100617.78
2023-08-08T01:35:20.344Z,100620.59
2023-08-08T01:37:54.114Z,100577.91
2023-08-08T01:40:22.974Z,100629.97
2023-08-08T01:42:51.772Z,100587.31
2023-08-08T01:45:19.802Z,100631.78
2023-08-08T01:47:51.931Z,100632.22
2023-08-08T01:50:19.504Z,100629.59
2023-08-08T01:52:47.302Z,100629.50
2023-08-08T01:55:14.855Z,100631.16
2023-08-08T01:57:42.401Z,100646.03
2023-08-08T02:00:10.816Z,100635.47
2023-08-08T02:02:42.815Z,100629.06
2023-08-08T02:05:10.940Z,100638.25
2023-08-08T02:07:38.581Z,100638.53
2023-08-08T02:10:06.518Z,100643.81
2023-08-08T02:12:34.356Z,100638.84
2023-08-08T02:15:01.879Z,100639.66
2023-08-08T02:17:30.134Z,100642.84
2023-08-08T02:19:57.980Z,100631.62
2023-08-08T02:22:26.497Z,100592.34
2023-08-08T02:24:53.970Z,100629.28
2023-08-08T02:27:21.796Z,100627.31
2023-08-08T02:29:49.886Z,100625.62
2023-08-08T02:32:17.458Z,100623.53
2023-08-08T02:34:45.496Z,100636.13
2023-08-08T02:37:14.270Z,100630.72
2023-08-08T02:39:44.019Z,100628.88
2023-08-08T02:42:11.899Z,100634.56
2023-08-08T02:44:39.606Z,100588.59
2023-08-08T02:47:07.324Z,100638.72
2023-08-08T02:49:34.929Z,100635.25
2023-08-08T02:52:02.976Z,100629.50
2023-08-08T02:54:31.775Z,100631.00
2023-08-08T02:56:59.305Z,100641.44
2023-08-08T02:59:27.190Z,100651.56
2023-08-08T03:01:54.768Z,100641.16
2023-08-08T03:04:22.560Z,100639.47
2023-08-08T03:06:50.844Z,100646.28
2023-08-08T03:09:18.418Z,100649.19
2023-08-08T03:11:46.151Z,100655.31
2023-08-08T03:14:14.424Z,100659.94
2023-08-08T03:16:42.067Z,100659.25
2023-08-08T03:19:09.888Z,100614.69
2023-08-08T03:21:38.043Z,100627.22
2023-08-08T03:24:06.080Z,100678.72
2023-08-08T03:26:33.568Z,100667.06
2023-08-08T03:29:01.488Z,100675.00
2023-08-08T03:31:29.811Z,100669.59
2023-08-08T03:33:57.953Z,100680.75
2023-08-08T03:36:25.806Z,100673.19
2023-08-08T03:38:53.528Z,100685.88
2023-08-08T03:41:21.087Z,100694.19
2023-08-08T03:43:48.792Z,100682.62
2023-08-08T03:46:16.424Z,100694.69
2023-08-08T03:48:43.989Z,100684.97
2023-08-08T03:51:11.821Z,100688.31
2023-08-08T03:53:39.453Z,100692.22
2023-08-08T03:56:08.573Z,100691.25
2023-08-08T03:58:38.503Z,100654.37
2023-08-08T04:01:07.050Z,100697.87
2023-08-08T04:03:35.001Z,100669.41
2023-08-08T04:06:02.817Z,100683.44
2023-08-08T04:08:30.822Z,100693.41
2023-08-08T04:10:59.197Z,100692.09
2023-08-08T04:13:26.710Z,100695.59
2023-08-08T04:15:54.204Z,100693.72
2023-08-08T04:18:21.959Z,100694.09
2023-08-08T04:20:49.649Z,100700.03
2023-08-08T04:23:17.134Z,100657.09
2023-08-08T04:25:45.807Z,100706.59
2023-08-08T04:28:13.323Z,100707.38
2023-08-08T04:30:40.845Z,100708.34
2023-08-08T04:33:08.669Z,100709.41
2023-08-08T04:35:36.235Z,100708.75
2023-08-08T04:38:04.054Z,100713.38
2023-08-08T04:40:31.913Z,100707.31
2023-08-08T04:42:59.433Z,100717.16
2023-08-08T04:45:28.478Z,100712.88
2023-08-08T04:47:56.721Z,100722.19
2023-08-08T04:50:24.430Z,100716.81
2023-08-08T04:52:51.926Z,100716.84
2023-08-08T04:55:20.384Z,100714.69
2023-08-08T04:57:47.796Z,100724.34
2023-08-08T05:00:15.567Z,100724.94
2023-08-08T05:02:43.478Z,100719.13
2023-08-08T05:05:11.008Z,100717.72
2023-08-08T05:07:39.073Z,100680.53
2023-08-08T05:10:07.311Z,100736.38
2023-08-08T05:12:34.796Z,100736.22
2023-08-08T05:15:02.280Z,100741.87
2023-08-08T05:17:32.549Z,100756.97
2023-08-08T05:20:00.194Z,100763.66
2023-08-08T05:22:27.766Z,100755.69
2023-08-08T05:24:55.550Z,100766.97
2023-08-08T05:27:23.076Z,100771.97
2023-08-08T05:29:50.528Z,100761.56
2023-08-08T05:32:18.269Z,100767.38
2023-08-08T05:34:45.718Z,100766.06
2023-08-08T05:37:17.451Z,100764.62
2023-08-08T05:39:46.124Z,100769.41
2023-08-08T05:42:13.814Z,100777.72
2023-08-08T05:44:43.034Z,100773.56
2023-08-08T05:47:11.243Z,100777.72
2023-08-08T05:49:42.843Z,100769.94
2023-08-08T05:52:11.354Z,100783.53
2023-08-08T05:54:38.978Z,100789.00
2023-08-08T05:57:06.764Z,100794.31
2023-08-08T05:59:34.581Z,100790.03
2023-08-08T06:02:02.315Z,100795.81
2023-08-08T06:04:30.348Z,100789.16
2023-08-08T06:06:57.783Z,100792.13
2023-08-08T06:09:26.056Z,100792.31
2023-08-08T06:11:53.801Z,100803.78
2023-08-08T06:14:21.271Z,100809.22
2023-08-08T06:16:48.815Z,100767.59
2023-08-08T06:19:16.937Z,100811.91
2023-08-08T06:21:44.582Z,100811.88
2023-08-08T06:24:12.218Z,100801.56
2023-08-08T06:26:40.382Z,100803.50
2023-08-08T06:29:07.966Z,100799.59
2023-08-08T06:31:35.564Z,100797.62
2023-08-08T06:34:03.348Z,100799.75
2023-08-08T06:36:30.817Z,100810.47
2023-08-08T06:38:58.319Z,100808.44
2023-08-08T06:41:26.198Z,100812.44
2023-08-08T06:43:54.225Z,100809.06
2023-08-08T06:46:21.859Z,100806.53
2023-08-08T06:48:50.277Z,100807.97
2023-08-08T06:51:17.713Z,100765.09
2023-08-08T06:53:47.570Z,100805.56
2023-08-08T06:56:15.371Z,100811.88
2023-08-08T06:58:42.984Z,100818.78
2023-08-08T07:01:11.087Z,100818.38
2023-08-08T07:03:38.893Z,100816.22
2023-08-08T07:06:07.184Z,100810.03
2023-08-08T07:08:34.672Z,100817.47
2023-08-08T07:11:02.489Z,100815.16
2023-08-08T07:13:30.059Z,100807.38
2023-08-08T07:15:57.715Z,100808.12
2023-08-08T07:18:25.569Z,100802.72
2023-08-08T07:20:53.086Z,100777.13
2023-08-08T07:23:20.570Z,100800.09
2023-08-08T07:25:49.420Z,100804.25
2023-08-08T07:28:19.338Z,100809.00
2023-08-08T07:30:46.874Z,100809.16
2023-08-08T07:33:14.910Z,100805.19
2023-08-08T07:35:42.612Z,100806.31
2023-08-08T07:38:10.098Z,100767.91
2023-08-08T07:40:37.946Z,100810.06
2023-08-08T07:43:05.395Z,100810.53
2023-08-08T07:45:32.883Z,100769.63
2023-08-08T07:48:00.673Z,100813.44
2023-08-08T07:50:28.209Z,100805.63
2023-08-08T07:52:55.686Z,100770.06
2023-08-08T07:55:23.578Z,100812.69
2023-08-08T07:57:51.044Z,100817.47
2023-08-08T08:00:19.772Z,100811.88
2023-08-08T08:02:47.810Z,100808.25
2023-08-08T08:05:15.558Z,100777.66
2023-08-08T08:07:43.216Z,100820.19
2023-08-08T08:10:14.425Z,100819.59
2023-08-08T08:12:42.910Z,100809.56
2023-08-08T08:15:11.808Z,100811.88
2023-08-08T08:17:39.386Z,100826.03
2023-08-08T08:20:11.953Z,100827.69
2023-08-08T08:22:39.983Z,100828.09
2023-08-08T08:25:10.160Z,100820.66
2023-08-08T08:27:38.054Z,100831.31
2023-08-08T08:30:11.993Z,100819.03
2023-08-08T08:32:41.642Z,100824.72
2023-08-08T08:35:10.264Z,100816.94
2023-08-08T08:37:37.699Z,100819.03
2023-08-08T08:40:06.160Z,100816.50
2023-08-08T08:42:34.935Z,100819.53
2023-08-08T08:45:04.894Z,100827.06
2023-08-08T08:47:34.190Z,100822.53
2023-08-08T08:50:04.305Z,100822.69
2023-08-08T08:52:32.170Z,100787.47
2023-08-08T08:54:59.784Z,100816.28
2023-08-08T08:57:28.257Z,100822.69
2023-08-08T08:59:55.748Z,100821.03
2023-08-08T09:02:24.547Z,100813.63
2023-08-08T09:04:52.903Z,100790.16
2023-08-08T09:07:23.702Z,100819.38
2023-08-08T09:09:51.159Z,100810.94
2023-08-08T09:12:20.005Z,100815.78
2023-08-08T09:14:47.564Z,100817.00
2023-08-08T09:17:15.588Z,100759.81
2023-08-08T09:19:45.145Z,100812.38
2023-08-08T09:22:14.349Z,100807.28
2023-08-08T09:24:42.440Z,100813.75
2023-08-08T09:27:13.494Z,100800.78
2023-08-08T09:29:42.774Z,100811.91
2023-08-08T09:32:10.787Z,100812.09
2023-08-08T09:34:38.262Z,100805.66
2023-08-08T09:37:07.640Z,100805.19
2023-08-08T09:39:35.371Z,100804.53
2023-08-08T09:42:05.356Z,100809.50
2023-08-08T09:44:36.109Z,100814.03
2023-08-08T09:47:04.105Z,100791.78
2023-08-08T09:49:35.325Z,100816.31
2023-08-08T09:52:03.252Z,100813.59
2023-08-08T09:54:32.175Z,100806.19
2023-08-08T09:57:00.477Z,100778.78
2023-08-08T09:59:28.369Z,100803.22
2023-08-08T10:01:58.651Z,100774.66
2023-08-08T10:04:26.814Z,100810.94
2023-08-08T10:06:54.381Z,100810.13
2023-08-08T10:09:22.643Z,100766.16
2023-08-08T10:11:50.508Z,100816.09
2023-08-08T10:14:17.946Z,100802.44
2023-08-08T10:16:46.999Z,100804.13
2023-08-08T10:19:22.442Z,100758.50
2023-08-08T10:21:56.963Z,100793.31
2023-08-08T10:24:24.778Z,100800.88
2023-08-08T10:26:58.753Z,100792.56
2023-08-08T10:29:28.556Z,100762.16
2023-08-08T10:32:07.563Z,100789.28
2023-08-08T10:34:43.255Z,100776.44
2023-08-08T10:37:13.334Z,100797.47
2023-08-08T10:39:54.816Z,100795.63
2023-08-08T10:42:24.699Z,100794.81
2023-08-08T10:44:54.362Z,100795.09
2023-08-08T10:47:48.148Z,100786.31
2023-08-08T10:50:17.242Z,100785.87
2023-08-08T10:52:53.944Z,100779.75
2023-08-08T10:55:27.408Z,100782.34
2023-08-08T10:58:01.014Z,100786.59
2023-08-08T11:00:31.391Z,100773.59
2023-08-08T11:03:00.812Z,100776.63
2023-08-08T11:05:32.376Z,100782.44
2023-08-08T11:08:01.974Z,100777.16
2023-08-08T11:10:32.456Z,100769.22
2023-08-08T11:13:01.442Z,100763.13
2023-08-08T11:15:29.104Z,100766.47
2023-08-08T11:17:57.451Z,100746.50
2023-08-08T11:20:26.085Z,100786.28
2023-08-08T11:22:55.599Z,100776.37
2023-08-08T11:25:26.301Z,100781.75
2023-08-08T11:27:55.235Z,100747.72
2023-08-08T11:30:24.352Z,100791.78
2023-08-08T11:35:25.160Z,100778.19
2023-08-08T11:37:54.047Z,100776.25
2023-08-08T11:40:24.914Z,100774.69
2023-08-08T11:42:53.445Z,100763.13
2023-08-08T11:45:21.332Z,100764.09
2023-08-08T11:47:53.692Z,100760.47
2023-08-08T11:50:25.739Z,100760.59
2023-08-08T11:52:55.231Z,100762.50
2023-08-08T11:55:29.747Z,100761.94
2023-08-08T11:57:58.282Z,100763.47
2023-08-08T12:00:31.340Z,100758.78
2023-08-08T12:03:01.806Z,100745.00
2023-08-08T12:05:29.762Z,100748.56
2023-08-08T12:07:59.900Z,100735.03
2023-08-08T12:10:27.793Z,100758.78
2023-08-08T12:12:59.764Z,100740.25
2023-08-08T12:15:31.945Z,100746.31
2023-08-08T12:18:00.773Z,100751.91
2023-08-08T12:20:32.063Z,100752.44
2023-08-08T12:23:00.821Z,100743.13
2023-08-08T12:25:28.779Z,100745.34
2023-08-08T12:27:56.411Z,100751.78
2023-08-08T12:30:24.296Z,100745.97
2023-08-08T12:32:51.761Z,100745.34
2023-08-08T12:35:19.231Z,100739.47
2023-08-08T12:37:47.581Z,100734.56
2023-08-08T12:40:15.208Z,100739.09
2023-08-08T12:42:42.837Z,100736.06
2023-08-08T12:45:11.635Z,100737.72
2023-08-08T12:47:39.252Z,100734.41
2023-08-08T12:50:09.068Z,100706.16
2023-08-08T12:52:37.267Z,100742.13
2023-08-08T12:55:05.686Z,100725.19
2023-08-08T12:57:33.219Z,100725.31
2023-08-08T13:00:01.036Z,100735.84
2023-08-08T13:02:28.802Z,100736.97
2023-08-08T13:04:56.279Z,100704.56
2023-08-08T13:07:24.125Z,100707.59
2023-08-08T13:09:51.660Z,100717.66
2023-08-08T13:12:19.175Z,100720.31
2023-08-08T13:14:47.114Z,100723.44
2023-08-08T13:17:14.638Z,100709.66
2023-08-08T13:19:42.081Z,100678.09
2023-08-08T13:22:09.828Z,100716.22
2023-08-08T13:24:37.420Z,100715.47
2023-08-08T13:27:05.172Z,100714.59
2023-08-08T13:29:33.371Z,100720.47
2023-08-08T13:32:01.076Z,100715.09
2023-08-08T13:34:28.814Z,100711.56
2023-08-08T13:36:56.566Z,100712.06
2023-08-08T13:39:24.489Z,100714.16
2023-08-08T13:41:52.078Z,100709.22
2023-08-08T13:44:19.916Z,100713.62
2023-08-08T13:46:47.474Z,100708.03
2023-08-08T13:49:15.060Z,100711.47
2023-08-08T13:51:43.093Z,100709.94
2023-08-08T13:54:12.270Z,100705.13
2023-08-08T13:56:40.038Z,100713.34
2023-08-08T13:59:07.909Z,100704.50
2023-08-08T14:01:35.508Z,100711.19
2023-08-08T14:04:03.565Z,100702.75
2023-08-08T14:06:31.852Z,100663.44
2023-08-08T14:08:59.426Z,100702.16
2023-08-08T14:11:27.192Z,100705.88
2023-08-08T14:13:54.579Z,100662.69
2023-08-08T14:16:22.154Z,100663.97
2023-08-08T14:18:49.900Z,100698.41
2023-08-08T14:21:17.341Z,100709.19
2023-08-08T14:23:45.651Z,100700.94
2023-08-08T14:26:13.451Z,100664.44
2023-08-08T14:28:41.052Z,100703.09
2023-08-08T14:31:08.608Z,100677.28
2023-08-08T14:33:36.352Z,100705.78
2023-08-08T14:36:04.629Z,100671.19
2023-08-08T14:38:36.765Z,100698.66
2023-08-08T14:41:05.117Z,100698.88
2023-08-08T14:43:32.731Z,100689.94
2023-08-08T14:46:00.308Z,100706.91
2023-08-08T14:48:28.254Z,100711.53
2023-08-08T14:50:55.893Z,100706.03
2023-08-08T14:53:23.328Z,100697.13
2023-08-08T14:55:51.446Z,100701.81
2023-08-08T14:58:18.931Z,100703.53
2023-08-08T15:00:46.510Z,100700.28
2023-08-08T15:03:15.307Z,100668.06
2023-08-08T15:05:44.524Z,100690.41
2023-08-08T15:08:12.847Z,100698.34
2023-08-08T15:10:40.534Z,100693.25
2023-08-08T15:13:08.097Z,100705.63
2023-08-08T15:15:35.665Z,100698.78
2023-08-08T15:18:03.595Z,100694.91
2023-08-08T15:20:31.853Z,100664.56
2023-08-08T15:22:59.338Z,100691.31
2023-08-08T15:25:27.143Z,100690.56
2023-08-08T15:27:54.571Z,100688.53
2023-08-08T15:30:22.054Z,100688.03
2023-08-08T15:32:49.821Z,100690.78
2023-08-08T15:35:17.463Z,100680.94
2023-08-08T15:37:45.210Z,100681.59
2023-08-08T15:40:12.996Z,100686.31
2023-08-08T15:42:44.121Z,100683.50
2023-08-08T15:45:12.985Z,100678.34
2023-08-08T15:47:40.817Z,100684.63
2023-08-08T15:50:09.138Z,100647.03
2023-08-08T15:52:37.515Z,100651.50
2023-08-08T15:55:06.143Z,100679.25
2023-08-08T15:57:33.801Z,100691.22
2023-08-08T16:00:01.366Z,100689.19
2023-08-08T16:02:29.276Z,100683.03
2023-08-08T16:04:58.294Z,100696.03
2023-08-08T16:07:25.779Z,100660.16
2023-08-08T16:09:53.236Z,100687.66
2023-08-08T16:12:21.510Z,100682.88
2023-08-08T16:14:48.962Z,100683.38
2023-08-08T16:17:16.415Z,100684.44
2023-08-08T16:19:44.259Z,100685.28
2023-08-08T16:22:12.063Z,100683.19
2023-08-08T16:24:40.138Z,100649.53
2023-08-08T16:27:08.150Z,100694.00
2023-08-08T16:29:35.584Z,100686.81
2023-08-08T16:32:03.579Z,100692.38
2023-08-08T16:34:32.174Z,100684.97
2023-08-08T16:36:59.825Z,100652.19
2023-08-08T16:39:27.822Z,100651.38
2023-08-08T16:41:59.650Z,100654.88
2023-08-08T16:44:27.484Z,100690.97
2023-08-08T16:46:55.264Z,100653.63
2023-08-08T16:49:23.370Z,100689.91
2023-08-08T16:51:50.855Z,100698.59
2023-08-08T16:54:18.660Z,100699.19
2023-08-08T16:56:46.172Z,100655.91
2023-08-08T16:59:13.731Z,100657.97
2023-08-08T17:01:42.742Z,100693.44
2023-08-08T17:04:11.828Z,100689.09
2023-08-08T17:06:40.102Z,100689.09
2023-08-08T17:09:08.903Z,100684.56
2023-08-08T17:11:36.557Z,100693.66
2023-08-08T17:14:04.637Z,100698.16
2023-08-08T17:16:32.502Z,100694.66
2023-08-08T17:19:00.065Z,100697.53
2023-08-08T17:21:27.544Z,100695.91
2023-08-08T17:23:55.313Z,100694.44
2023-08-08T17:26:22.862Z,100692.41
2023-08-08T17:28:51.175Z,100694.47
2023-08-08T17:31:19.633Z,100697.94
2023-08-08T17:33:47.163Z,100704.31
2023-08-08T17:36:14.619Z,100704.94
2023-08-08T17:38:42.428Z,100701.63
2023-08-08T17:41:09.912Z,100706.34
2023-08-08T17:43:37.389Z,100703.22
2023-08-08T17:46:05.155Z,100709.09
2023-08-08T17:48:32.618Z,100671.75
2023-08-08T17:51:00.189Z,100709.25
2023-08-08T17:53:30.278Z,100709.00
2023-08-08T17:55:57.857Z,100713.06
2023-08-08T17:58:25.430Z,100709.91
2023-08-08T18:00:53.154Z,100711.91
2023-08-08T18:03:21.649Z,100708.94
2023-08-08T18:05:49.402Z,100715.66
2023-08-08T18:08:17.396Z,100717.03
2023-08-08T18:10:45.223Z,100719.41
2023-08-08T18:13:12.792Z,100719.47
2023-08-08T18:15:40.322Z,100724.84
2023-08-08T18:18:08.121Z,100717.84
2023-08-08T18:20:35.616Z,100723.59
2023-08-08T18:23:05.220Z,100736.31
2023-08-08T18:25:33.152Z,100735.22
2023-08-08T18:28:00.834Z,100733.31
2023-08-08T18:30:28.329Z,100732.91
2023-08-08T18:32:56.524Z,100702.44
2023-08-08T18:35:24.103Z,100747.19
2023-08-08T18:37:51.716Z,100748.00
2023-08-08T18:40:21.959Z,100751.41
2023-08-08T18:42:49.431Z,100757.50
2023-08-08T18:45:17.115Z,100755.75
2023-08-08T18:47:45.119Z,100765.34
2023-08-08T18:50:12.666Z,100761.38
2023-08-08T18:52:40.410Z,100763.19
2023-08-08T18:55:08.396Z,100765.22
2023-08-08T18:57:36.208Z,100770.75
2023-08-08T19:00:06.528Z,100728.91
2023-08-08T19:02:36.490Z,100768.56
2023-08-08T19:05:04.818Z,100768.94
2023-08-08T19:07:32.217Z,100750.38
2023-08-08T19:10:00.184Z,100767.84
2023-08-08T19:12:27.965Z,100768.75
2023-08-08T19:14:55.379Z,100771.94
2023-08-08T19:17:23.412Z,100767.16
2023-08-08T19:19:51.449Z,100767.50
2023-08-08T19:22:19.278Z,100770.38
2023-08-08T19:24:47.339Z,100773.66
2023-08-08T19:27:15.402Z,100776.41
2023-08-08T19:29:43.482Z,100776.66
2023-08-08T19:32:11.343Z,100780.91
2023-08-08T19:34:38.880Z,100756.56
2023-08-08T19:37:06.509Z,100741.22
2023-08-08T19:39:35.999Z,100771.81
2023-08-08T19:42:04.065Z,100785.41
2023-08-08T19:44:31.460Z,100776.78
2023-08-08T19:47:01.032Z,100779.31
2023-08-08T19:49:28.746Z,100781.38
2023-08-08T19:51:56.536Z,100782.22
2023-08-08T19:54:24.520Z,100773.50
2023-08-08T19:56:52.025Z,100786.94
2023-08-08T19:59:19.819Z,100788.31
2023-08-08T20:01:47.688Z,100782.50
2023-08-08T20:04:15.491Z,100785.72
2023-08-08T20:06:43.096Z,100781.41
2023-08-08T20:09:10.654Z,100786.09
2023-08-08T20:11:42.441Z,100785.13
2023-08-08T20:14:10.998Z,100787.41
2023-08-08T20:16:38.844Z,100779.09
2023-08-08T20:19:06.383Z,100785.59
2023-08-08T20:21:33.869Z,100787.44
2023-08-08T20:24:02.694Z,100778.81
2023-08-08T20:26:30.303Z,100779.50
2023-08-08T20:28:57.803Z,100778.84
2023-08-08T20:31:25.560Z,100780.97
2023-08-08T20:33:57.482Z,100782.16
2023-08-08T20:36:25.297Z,100776.19
2023-08-08T20:38:52.809Z,100738.75
2023-08-08T20:41:20.389Z,100779.00
2023-08-08T20:43:48.090Z,100735.09
2023-08-08T20:46:16.152Z,100783.34
2023-08-08T20:48:44.067Z,100783.84
2023-08-08T20:51:11.773Z,100782.19
2023-08-08T20:53:39.206Z,100779.53
2023-08-08T20:56:06.701Z,100777.06
2023-08-08T20:58:34.503Z,100783.69
2023-08-08T21:01:02.354Z,100775.09
2023-08-08T21:03:29.903Z,100781.72
2023-08-08T21:05:57.725Z,100780.06
2023-08-08T21:08:25.188Z,100782.03
2023-08-08T21:10:52.719Z,100780.72
2023-08-08T21:13:20.514Z,100784.69
2023-08-08T21:15:48.061Z,100789.66
2023-08-08T21:18:15.613Z,100789.34
2023-08-08T21:20:43.824Z,100792.81
2023-08-08T21:23:11.372Z,100776.91
2023-08-08T21:25:38.882Z,100779.37
2023-08-08T21:28:06.784Z,100785.34
2023-08-08T21:30:34.372Z,100786.69
2023-08-08T21:33:01.883Z,100747.25
2023-08-08T21:35:29.632Z,100782.75
2023-08-08T21:37:57.150Z,100784.47
2023-08-08T21:40:24.601Z,100787.75
2023-08-08T21:42:52.824Z,100781.09
2023-08-08T21:45:20.354Z,100777.16
2023-08-08T21:47:47.863Z,100779.13
2023-08-08T21:50:15.608Z,100773.81
2023-08-08T21:52:43.108Z,100777.62
2023-08-08T21:55:10.934Z,100774.47
2023-08-08T21:57:39.222Z,100782.09
2023-08-08T22:00:07.558Z,100777.41
2023-08-08T22:02:42.250Z,100775.34
2023-08-08T22:05:10.513Z,100782.31
2023-08-08T22:07:38.367Z,100780.50
2023-08-08T22:10:06.842Z,100779.22
2023-08-08T22:12:34.668Z,100777.72
2023-08-08T22:15:02.235Z,100782.28
2023-08-08T22:17:29.798Z,100740.81
2023-08-08T22:19:57.609Z,100784.16
2023-08-08T22:22:25.419Z,100783.34
2023-08-08T22:24:52.911Z,100731.56
2023-08-08T22:27:20.890Z,100764.41
2023-08-08T22:29:48.413Z,100771.03
2023-08-08T22:32:15.934Z,100772.31
2023-08-08T22:34:43.606Z,100773.69
2023-08-08T22:37:11.189Z,100766.06
2023-08-08T22:39:38.686Z,100726.69
2023-08-08T22:42:06.395Z,100768.66
2023-08-08T22:44:33.926Z,100769.31
2023-08-08T22:47:01.679Z,100773.56
2023-08-08T22:49:29.852Z,100767.25
2023-08-08T22:51:57.808Z,100761.75
2023-08-08T22:54:25.765Z,100770.47
2023-08-08T22:56:53.525Z,100732.91
2023-08-08T22:59:20.998Z,100755.25
2023-08-08T23:01:48.612Z,100753.81
2023-08-08T23:04:16.364Z,100761.88
2023-08-08T23:06:43.901Z,100742.25
2023-08-08T23:09:11.462Z,100757.75
2023-08-08T23:11:39.166Z,100755.44
2023-08-08T23:14:06.708Z,100751.78
2023-08-08T23:16:34.302Z,100752.59
2023-08-08T23:19:02.107Z,100754.41
2023-08-08T23:21:29.783Z,100750.97
2023-08-08T23:23:58.006Z,100754.09
2023-08-08T23:26:26.509Z,100752.59
2023-08-08T23:28:53.991Z,100756.56
2023-08-08T23:31:21.715Z,100753.41
2023-08-08T23:33:49.981Z,100755.50
2023-08-08T23:36:17.476Z,100750.09
2023-08-08T23:38:44.978Z,100754.03
2023-08-08T23:41:12.831Z,100749.19
2023-08-08T23:43:42.319Z,100752.06
2023-08-08T23:46:12.191Z,100750.09
2023-08-08T23:48:40.672Z,100745.66
2023-08-08T23:51:08.394Z,100719.59
2023-08-08T23:53:35.916Z,100741.69
2023-08-08T23:56:03.706Z,100699.00
2023-08-08T23:58:31.406Z,100741.28
